createdAt,value
2022-10-15T00:02:27.816Z,8.68
2022-10-15T00:07:33.666Z,8.65
2022-10-15T00:12:40.402Z,8.63
2022-10-15T00:17:46.187Z,8.55
2022-10-15T00:22:51.954Z,8.50
2022-10-15T00:27:57.773Z,8.40
2022-10-15T00:33:03.867Z,8.39
2022-10-15T00:38:09.689Z,8.39
2022-10-15T00:43:15.441Z,8.35
2022-10-15T00:48:21.639Z,8.28
2022-10-15T00:53:27.541Z,8.28
2022-10-15T00:58:35.120Z,8.26
2022-10-15T01:03:41.294Z,8.28
2022-10-15T01:08:47.258Z,8.27
2022-10-15T01:14:02.215Z,8.21
2022-10-15T01:19:16.776Z,8.16
2022-10-15T01:24:53.022Z,8.14
2022-10-15T01:30:20.586Z,8.14
2022-10-15T01:35:33.961Z,8.16
2022-10-15T01:40:46.259Z,8.17
2022-10-15T01:45:56.714Z,8.21
2022-10-15T01:51:24.494Z,8.30
2022-10-15T01:56:38.729Z,8.39
2022-10-15T02:01:46.722Z,8.46
2022-10-15T02:07:00.616Z,8.48
2022-10-15T02:12:17.448Z,8.52
2022-10-15T02:17:32.047Z,8.57
2022-10-15T02:22:42.740Z,8.61
2022-10-15T02:27:52.614Z,8.65
2022-10-15T02:33:00.306Z,8.64
2022-10-15T02:38:10.892Z,8.64
2022-10-15T02:43:20.071Z,8.67
2022-10-15T02:48:26.499Z,8.71
2022-10-15T02:53:32.507Z,8.73
2022-10-15T02:58:38.874Z,8.69
2022-10-15T03:03:46.337Z,8.68
2022-10-15T03:08:52.436Z,8.69
2022-10-15T03:13:58.220Z,8.68
2022-10-15T03:19:04.361Z,8.64
2022-10-15T03:24:10.346Z,8.63
2022-10-15T03:29:16.389Z,8.64
2022-10-15T03:34:33.517Z,8.64
2022-10-15T03:39:40.024Z,8.63
2022-10-15T03:44:46.249Z,8.61
2022-10-15T03:49:55.044Z,8.60
2022-10-15T03:55:00.908Z,8.61
2022-10-15T04:00:09.475Z,8.64
2022-10-15T04:05:19.093Z,8.68
2022-10-15T04:10:29.636Z,8.67
2022-10-15T04:15:38.770Z,8.63
2022-10-15T04:20:47.113Z,8.63
2022-10-15T04:25:58.293Z,8.64
2022-10-15T04:31:04.895Z,8.68
2022-10-15T04:36:13.914Z,8.69
2022-10-15T04:41:36.493Z,8.68
2022-10-15T04:46:48.826Z,8.73
2022-10-15T04:52:13.634Z,8.77
2022-10-15T04:57:31.422Z,8.76
2022-10-15T05:02:41.275Z,8.71
2022-10-15T05:07:54.316Z,8.71
2022-10-15T05:13:00.560Z,8.76
2022-10-15T05:18:09.715Z,8.79
2022-10-15T05:23:23.079Z,8.89
2022-10-15T05:28:40.896Z,9.00
2022-10-15T05:33:47.577Z,9.15
2022-10-15T05:38:55.486Z,9.31
2022-10-15T05:44:01.682Z,9.42
2022-10-15T05:49:08.666Z,9.47
2022-10-15T05:54:30.119Z,9.60
2022-10-15T05:59:36.110Z,9.70
2022-10-15T06:04:41.876Z,9.82
2022-10-15T06:09:47.629Z,9.96
2022-10-15T06:14:54.630Z,10.31
2022-10-15T06:20:00.480Z,11.65
2022-10-15T06:25:54.414Z,13.29
2022-10-15T06:31:01.222Z,13.80
2022-10-15T06:36:11.350Z,14.61
2022-10-15T06:41:17.667Z,16.04
2022-10-15T06:46:23.559Z,16.28
2022-10-15T06:51:29.342Z,15.99
2022-10-15T06:56:35.242Z,15.97
2022-10-15T07:01:42.297Z,15.73
2022-10-15T07:06:49.203Z,15.72
2022-10-15T07:11:56.539Z,15.68
2022-10-15T07:17:02.756Z,16.13
2022-10-15T07:22:08.445Z,16.86
2022-10-15T07:27:24.137Z,18.69
2022-10-15T07:32:30.089Z,20.46
2022-10-15T07:37:36.067Z,22.06
2022-10-15T07:42:43.755Z,23.25
2022-10-15T07:47:49.623Z,24.30
2022-10-15T07:52:55.256Z,24.85
2022-10-15T07:58:01.139Z,24.67
2022-10-15T08:03:07.094Z,22.77
2022-10-15T08:08:12.730Z,20.51
2022-10-15T08:13:18.661Z,18.69
2022-10-15T08:18:27.075Z,17.32
2022-10-15T08:23:33.049Z,16.33
2022-10-15T08:28:39.051Z,15.76
2022-10-15T08:33:46.499Z,15.68
2022-10-15T08:38:52.265Z,16.12
2022-10-15T08:43:59.183Z,17.59
2022-10-15T08:49:09.559Z,18.94
2022-10-15T08:54:18.559Z,20.30
2022-10-15T08:59:34.282Z,21.41
2022-10-15T09:04:50.035Z,22.25
2022-10-15T09:10:02.299Z,23.39
2022-10-15T09:15:14.030Z,24.10
2022-10-15T09:20:23.883Z,23.91
2022-10-15T09:25:37.879Z,23.81
2022-10-15T09:30:52.891Z,23.94
2022-10-15T09:36:08.361Z,23.63
2022-10-15T09:41:25.536Z,23.02
2022-10-15T09:46:31.606Z,22.49
2022-10-15T09:51:44.170Z,21.75
2022-10-15T09:56:54.216Z,20.88
2022-10-15T10:02:02.729Z,20.15
2022-10-15T10:07:27.387Z,19.39
2022-10-15T10:12:36.114Z,18.72
2022-10-15T10:17:53.790Z,18.57
2022-10-15T10:23:01.423Z,18.95
2022-10-15T10:28:24.409Z,19.13
2022-10-15T10:34:29.992Z,19.53
2022-10-15T10:40:02.871Z,20.39
2022-10-15T10:45:28.880Z,20.80
2022-10-15T10:51:23.706Z,21.11
2022-10-15T10:56:51.055Z,21.23
2022-10-15T11:09:12.275Z,21.07
2022-10-15T11:15:10.626Z,21.08
2022-10-15T11:20:59.613Z,21.46
2022-10-15T11:33:08.652Z,21.77
2022-10-15T11:38:51.131Z,21.77
2022-10-15T11:50:36.083Z,21.53
2022-10-15T11:56:22.468Z,21.46
2022-10-15T12:01:56.620Z,21.26
2022-10-15T12:07:38.978Z,20.90
2022-10-15T12:13:20.556Z,20.49
2022-10-15T12:18:53.360Z,20.06
2022-10-15T12:24:40.895Z,19.69
2022-10-15T12:31:25.065Z,19.30
2022-10-15T12:36:37.005Z,19.16
2022-10-15T12:41:44.991Z,19.17
2022-10-15T12:46:51.115Z,19.18
2022-10-15T12:51:58.087Z,19.10
2022-10-15T12:57:40.874Z,19.09
2022-10-15T13:02:49.394Z,18.97
2022-10-15T13:07:59.855Z,18.85
2022-10-15T13:13:07.875Z,18.69
2022-10-15T13:18:15.401Z,18.53
2022-10-15T13:23:32.509Z,18.39
2022-10-15T13:28:41.971Z,18.25
2022-10-15T13:33:51.211Z,18.10
2022-10-15T13:39:00.460Z,17.98
2022-10-15T13:44:06.600Z,17.99
2022-10-15T13:49:13.692Z,18.06
2022-10-15T13:54:23.926Z,18.08
2022-10-15T13:59:31.793Z,18.08
2022-10-15T14:04:37.880Z,18.01
2022-10-15T14:09:46.738Z,17.89
2022-10-15T14:14:52.578Z,17.76
2022-10-15T14:20:26.831Z,17.64
2022-10-15T14:25:29.029Z,17.55
2022-10-15T14:30:37.512Z,17.45
2022-10-15T14:35:44.220Z,17.40
2022-10-15T14:41:03.562Z,17.37
2022-10-15T14:46:18.426Z,17.24
2022-10-15T14:51:25.507Z,17.12
2022-10-15T14:56:33.649Z,17.03
2022-10-15T15:01:41.080Z,16.96
2022-10-15T15:06:47.844Z,16.88
2022-10-15T15:11:53.588Z,16.80
2022-10-15T15:16:59.237Z,16.77
2022-10-15T15:22:05.136Z,16.74
2022-10-15T15:27:20.762Z,16.67
2022-10-15T15:32:27.213Z,16.61
2022-10-15T15:37:33.512Z,16.55
2022-10-15T15:42:39.859Z,16.47
2022-10-15T15:47:45.674Z,16.38
2022-10-15T15:52:51.443Z,16.31
2022-10-15T15:57:57.255Z,16.25
2022-10-15T16:03:02.997Z,16.21
2022-10-15T16:08:10.957Z,16.14
2022-10-15T16:13:16.650Z,16.06
2022-10-15T16:18:22.523Z,15.97
2022-10-15T16:23:28.409Z,15.91
2022-10-15T16:28:34.319Z,15.90
2022-10-15T16:33:41.285Z,15.88
2022-10-15T16:38:48.214Z,15.85
2022-10-15T16:43:53.955Z,15.78
2022-10-15T16:48:59.691Z,15.70
2022-10-15T16:54:05.562Z,15.65
2022-10-15T16:59:11.380Z,15.64
2022-10-15T17:04:17.209Z,15.63
2022-10-15T17:09:23.807Z,15.61
2022-10-15T17:14:29.916Z,15.57
2022-10-15T17:19:35.939Z,15.55
2022-10-15T17:24:41.919Z,15.53
2022-10-15T17:29:47.615Z,15.47
2022-10-15T17:34:53.395Z,15.33
2022-10-15T17:39:59.185Z,15.15
2022-10-15T17:45:06.159Z,15.04
2022-10-15T17:50:14.278Z,14.98
2022-10-15T17:55:20.590Z,14.93
2022-10-15T18:00:26.371Z,14.83
2022-10-15T18:05:32.885Z,14.77
2022-10-15T18:10:39.190Z,14.73
2022-10-15T18:15:48.874Z,14.71
2022-10-15T18:20:55.328Z,14.67
2022-10-15T18:26:05.783Z,14.64
2022-10-15T18:35:52.346Z,14.65
2022-10-15T18:40:58.226Z,14.65
2022-10-15T18:46:04.813Z,14.62
2022-10-15T18:51:11.080Z,14.62
2022-10-15T18:56:17.150Z,14.63
2022-10-15T19:01:29.527Z,14.62
2022-10-15T19:06:37.321Z,14.56
2022-10-15T19:11:45.393Z,14.57
2022-10-15T19:16:52.147Z,14.56
2022-10-15T19:21:58.215Z,14.49
2022-10-15T19:27:04.078Z,14.38
2022-10-15T19:32:11.157Z,14.28
2022-10-15T19:37:17.166Z,14.20
2022-10-15T19:42:26.855Z,14.11
2022-10-15T19:47:32.836Z,14.02
2022-10-15T19:52:38.622Z,13.93
2022-10-15T19:57:44.500Z,13.90
2022-10-15T20:02:50.366Z,13.87
2022-10-15T20:07:56.098Z,13.77
2022-10-15T20:13:01.926Z,13.70
2022-10-15T20:18:07.889Z,13.71
2022-10-15T20:23:15.211Z,13.70
2022-10-15T20:28:21.082Z,13.66
2022-10-15T20:33:27.058Z,13.69
2022-10-15T20:38:34.585Z,13.68
2022-10-15T20:43:42.029Z,13.62
2022-10-15T20:48:48.470Z,13.56
2022-10-15T20:53:54.417Z,13.43
2022-10-15T20:59:00.254Z,13.39
2022-10-15T21:04:06.580Z,13.38
2022-10-15T21:09:12.415Z,13.32
2022-10-15T21:14:18.377Z,13.22
2022-10-15T21:19:24.399Z,13.14
2022-10-15T21:24:30.308Z,13.03
2022-10-15T21:29:36.438Z,12.99
2022-10-15T21:34:42.238Z,13.00
2022-10-15T21:39:48.233Z,12.96
2022-10-15T21:44:54.039Z,12.98
2022-10-15T21:49:59.802Z,13.06
2022-10-15T21:55:06.929Z,13.16
2022-10-15T22:00:16.525Z,13.23
2022-10-15T22:05:22.806Z,13.24
2022-10-15T22:10:28.592Z,13.25
2022-10-15T22:15:35.553Z,13.27
2022-10-15T22:25:59.978Z,13.37
2022-10-15T22:31:07.964Z,13.40
2022-10-15T22:36:16.543Z,13.48
2022-10-15T22:41:22.516Z,13.65
2022-10-15T22:46:34.700Z,13.78
2022-10-15T22:51:40.589Z,13.87
2022-10-15T22:56:47.015Z,13.92
2022-10-15T23:01:52.867Z,13.98
2022-10-15T23:06:58.711Z,14.05
2022-10-15T23:12:04.787Z,14.06
2022-10-15T23:17:10.663Z,14.05
2022-10-15T23:22:16.403Z,14.00
2022-10-15T23:27:22.144Z,13.95
2022-10-15T23:32:28.059Z,13.94
2022-10-15T23:37:33.946Z,13.94
2022-10-15T23:42:40.135Z,13.92
2022-10-15T23:47:45.974Z,13.89
2022-10-15T23:52:51.889Z,13.85
2022-10-15T23:57:57.610Z,13.84
